Carson City, NV

11:16 PM PST on February 06, 2016 (GMT -0800)
Carson

Weather History for KCXP - February, 2013

Change the Weather History Date:

Saturday, February 23, 2013

  Actual Average Record
Temperature  
Mean Temperature 34 °F -  
Max Temperature 46 °F 51 °F 64 °F (2014)
Min Temperature 21 °F 26 °F 21 °F (2013)
Degree Days  
Heating Degree Days 32    
Moisture  
Dew Point 15 °F    
Average Humidity 43    
Maximum Humidity 70    
Minimum Humidity 22    
Precipitation  
Precipitation 0.00 in - - ()
Sea Level Pressure  
Sea Level Pressure 30.09 in    
Wind  
Wind Speed 14 mph (NNW)    
Max Wind Speed 30 mph    
Max Gust Speed 40 mph    
Visibility 10 miles    
Events Rain , Snow    
Averages and records for this station are not official NWS values.
T = Trace of Precipitation, MM = Missing Value Source: NWS Daily Summary

Daily Weather History Graph

Daily Weather History Graph

Search for Another Location

Airport or City:

Trip Planner

Search our weather history database for the weather conditions in past years. The results will help you decide how hot, cold, wet, or windy it might be!

Date:

Astronomy

Feb. 23, 2013 Rise Set
Actual Time 6:39 AM PST 5:45 PM PST
Civil Twilight 6:12 AM PST 6:12 PM PST
Nautical Twilight 5:41 AM PST 6:43 PM PST
Astronomical Twilight 5:10 AM PST 7:14 PM PST
Moon 4:01 PM PST (2/23) 5:04 AM PST (2/23)
Length of Visible Light 11h 59m
Length of Day
11h 05m
Waxing Gibbous, 96% of the Moon is Illuminated
Feb 23
Waxing Gibbous
Feb 25
Full
Mar 4
Last Quarter
Mar 11
New
Mar 19
First Quarter

Hourly Weather History & Observations

Time (PST) Temp. Windchill Dew Point Humidity Pressure Visibility Wind Dir Wind Speed Gust Speed Precip Events Conditions
12:15 AM 44.6 °F 39.2 °F 19.4 °F 37% 30.05 in 10.0 mi SSW 10.4 mph - N/A   Overcast
12:35 AM 46.4 °F 41.9 °F 21.2 °F 37% 30.04 in 10.0 mi SW 9.2 mph - N/A   Overcast
12:55 AM 44.6 °F - 21.2 °F 39% 30.02 in 10.0 mi Calm Calm - N/A   Scattered Clouds
1:15 AM 44.6 °F 36.9 °F 24.8 °F 46% 30.01 in 10.0 mi WSW 18.4 mph 25.3 mph N/A   Clear
1:35 AM 44.6 °F 38.4 °F 24.8 °F 46% 29.99 in 10.0 mi WSW 12.7 mph 24.2 mph N/A   Clear
1:55 AM 44.6 °F 37.8 °F 24.8 °F 46% 29.98 in 10.0 mi WSW 15.0 mph 28.8 mph N/A   Clear
2:15 AM 44.6 °F 37.8 °F 24.8 °F 46% 29.97 in 10.0 mi WSW 15.0 mph 25.3 mph N/A   Clear
2:35 AM 44.6 °F 36.4 °F 23.0 °F 43% 29.96 in 10.0 mi WSW 20.7 mph 29.9 mph N/A   Scattered Clouds
2:55 AM 44.6 °F 35.9 °F 23.0 °F 43% 29.93 in 10.0 mi WSW 23.0 mph 32.2 mph N/A   Scattered Clouds
3:15 AM 44.6 °F 35.7 °F 21.2 °F 39% 29.90 in 10.0 mi WSW 24.2 mph 36.8 mph N/A   Partly Cloudy
3:35 AM 44.6 °F 34.7 °F 23.0 °F 43% 29.90 in 10.0 mi WSW 29.9 mph 40.3 mph N/A   Clear
3:55 AM 44.6 °F 36.1 °F 24.8 °F 46% 29.91 in 10.0 mi SW 21.9 mph 34.5 mph N/A   Scattered Clouds
4:15 AM 42.8 °F 34.5 °F 24.8 °F 49% 29.91 in 10.0 mi West 18.4 mph 34.5 mph N/A   Mostly Cloudy
4:35 AM 41.0 °F 31.6 °F 24.8 °F 53% 29.93 in 10.0 mi West 20.7 mph 32.2 mph N/A   Mostly Cloudy
4:55 AM 41.0 °F 31.1 °F 26.6 °F 57% 29.94 in 10.0 mi WSW 23.0 mph 40.3 mph N/A   Overcast
5:15 AM 39.2 °F 32.0 °F 28.4 °F 65% 29.95 in 10.0 mi West 11.5 mph 29.9 mph N/A Rain Light Rain
5:35 AM 37.4 °F 29.8 °F 26.6 °F 65% 29.95 in 9.0 mi West 11.5 mph 18.4 mph N/A Rain Light Rain
5:55 AM 37.4 °F 30.8 °F 28.4 °F 70% 29.99 in 10.0 mi SW 9.2 mph 18.4 mph N/A   Mostly Cloudy
6:15 AM 37.4 °F 28.9 °F 26.6 °F 65% 29.99 in 10.0 mi WNW 13.8 mph 20.7 mph N/A   Mostly Cloudy
6:35 AM 37.4 °F 31.4 °F 26.6 °F 65% 30.01 in 10.0 mi WNW 8.1 mph 19.6 mph N/A Snow Light Snow
6:55 AM 37.4 °F 28.5 °F 19.4 °F 48% 30.02 in 10.0 mi NW 15.0 mph 25.3 mph N/A   Scattered Clouds
7:15 AM 35.6 °F 28.6 °F 24.8 °F 65% 30.04 in 10.0 mi North 9.2 mph - N/A Rain Light Rain
7:35 AM 35.6 °F 32.8 °F 24.8 °F 65% 30.05 in 10.0 mi WNW 3.5 mph - N/A   Scattered Clouds
7:55 AM 37.4 °F 31.4 °F 19.4 °F 48% 30.05 in 10.0 mi West 8.1 mph - N/A   Clear
8:15 AM 37.4 °F 30.8 °F 19.4 °F 48% 30.07 in 10.0 mi NNW 9.2 mph 19.6 mph N/A   Scattered Clouds
8:35 AM 35.6 °F 25.5 °F 19.4 °F 52% 30.09 in 10.0 mi North 17.3 mph 23.0 mph N/A   Scattered Clouds
8:55 AM 37.4 °F 27.8 °F 19.4 °F 48% 30.10 in 10.0 mi North 17.3 mph 23.0 mph N/A   Clear
9:15 AM 37.4 °F 27.5 °F 17.6 °F 45% 30.10 in 10.0 mi North 18.4 mph 24.2 mph N/A   Scattered Clouds
9:35 AM 35.6 °F 25.9 °F 17.6 °F 48% 30.11 in 10.0 mi North 16.1 mph 27.6 mph N/A   Overcast
9:55 AM 37.4 °F 27.5 °F 15.8 °F 41% 30.11 in 10.0 mi North 18.4 mph 21.9 mph N/A   Overcast
10:15 AM 39.2 °F 30.5 °F 15.8 °F 39% 30.11 in 10.0 mi North 16.1 mph 21.9 mph N/A   Mostly Cloudy
10:35 AM 35.6 °F 24.8 °F 14.0 °F 41% 30.12 in 10.0 mi NNW 19.6 mph 25.3 mph N/A   Mostly Cloudy
10:55 AM 37.4 °F 25.4 °F 14.0 °F 38% 30.12 in 10.0 mi NNW 27.6 mph 32.2 mph N/A   Mostly Cloudy
11:15 AM 37.4 °F 26.1 °F 14.0 °F 38% 30.12 in 10.0 mi North 24.2 mph 32.2 mph N/A   Mostly Cloudy
11:35 AM 37.4 °F 26.1 °F 12.2 °F 36% 30.13 in 10.0 mi NNW 24.2 mph 31.1 mph N/A   Partly Cloudy
11:55 AM 39.2 °F 29.6 °F 10.4 °F 31% 30.13 in 10.0 mi NNW 19.6 mph 27.6 mph N/A   Clear
12:15 PM 39.2 °F 29.0 °F 8.6 °F 28% 30.12 in 10.0 mi North 21.9 mph 31.1 mph N/A   Clear
12:35 PM 39.2 °F 28.7 °F 6.8 °F 26% 30.12 in 10.0 mi North 23.0 mph 29.9 mph N/A   Clear
12:55 PM 39.2 °F 28.7 °F 6.8 °F 26% 30.11 in 10.0 mi North 23.0 mph 31.1 mph N/A   Clear
1:15 PM 39.2 °F 29.0 °F 6.8 °F 26% 30.11 in 10.0 mi North 21.9 mph 29.9 mph N/A   Clear
1:35 PM 39.2 °F 29.6 °F 3.2 °F 22% 30.11 in 10.0 mi North 19.6 mph 28.8 mph N/A   Clear
1:55 PM 39.2 °F 28.7 °F 6.8 °F 26% 30.11 in 10.0 mi North 23.0 mph 27.6 mph N/A   Clear
2:15 PM 39.2 °F 31.6 °F 5.0 °F 24% 30.12 in 10.0 mi NNW 12.7 mph 20.7 mph N/A   Clear
2:35 PM 37.4 °F 28.2 °F 3.2 °F 24% 30.12 in 10.0 mi NNW 16.1 mph 25.3 mph N/A   Clear
2:55 PM 37.4 °F 27.8 °F 5.0 °F 26% 30.13 in 10.0 mi North 17.3 mph 24.2 mph N/A   Clear
3:15 PM 37.4 °F 29.8 °F 3.2 °F 24% 30.13 in 10.0 mi North 11.5 mph 20.7 mph N/A   Clear
3:35 PM 37.4 °F 28.2 °F 5.0 °F 26% 30.13 in 10.0 mi NNW 16.1 mph 20.7 mph N/A   Partly Cloudy
3:55 PM 37.4 °F 28.9 °F 5.0 °F 26% 30.13 in 10.0 mi North 13.8 mph 23.0 mph N/A   Scattered Clouds
4:15 PM 37.4 °F 28.5 °F 6.8 °F 28% 30.14 in 10.0 mi North 15.0 mph 20.7 mph N/A   Scattered Clouds
4:35 PM 35.6 °F 27.5 °F 5.0 °F 28% 30.15 in 10.0 mi North 11.5 mph 24.2 mph N/A   Partly Cloudy
4:55 PM 35.6 °F 27.1 °F 5.0 °F 28% 30.15 in 10.0 mi North 12.7 mph 19.6 mph N/A   Clear
5:15 PM 33.8 °F 25.3 °F 6.8 °F 32% 30.16 in 10.0 mi NNW 11.5 mph - N/A   Clear
5:35 PM 33.8 °F 25.3 °F 6.8 °F 32% 30.16 in 10.0 mi North 11.5 mph - N/A   Scattered Clouds
5:55 PM 32.0 °F 22.5 °F 8.6 °F 38% 30.16 in 10.0 mi North 12.7 mph 19.6 mph N/A   Partly Cloudy
6:15 PM 32.0 °F 23.6 °F 10.4 °F 41% 30.17 in 10.0 mi North 10.4 mph - N/A   Clear
6:35 PM 32.0 °F 25.6 °F 12.2 °F 44% 30.18 in 10.0 mi NNE 6.9 mph - N/A   Clear
6:55 PM 32.0 °F 27.5 °F 10.4 °F 41% 30.19 in 10.0 mi East 4.6 mph - N/A   Clear
7:15 PM 32.0 °F 25.6 °F 10.4 °F 41% 30.19 in 10.0 mi NE 6.9 mph - N/A   Clear
7:35 PM 32.0 °F 24.2 °F 10.4 °F 41% 30.19 in 10.0 mi ENE 9.2 mph - N/A   Clear
7:55 PM 30.2 °F 25.4 °F 10.4 °F 44% 30.21 in 10.0 mi ENE 4.6 mph - N/A   Clear
8:35 PM 26.6 °F - 10.4 °F 51% 30.20 in 10.0 mi Calm Calm - N/A   Clear
8:55 PM 26.6 °F - 10.4 °F 51% 30.20 in 10.0 mi Calm Calm - N/A   Clear
9:15 PM 28.4 °F - 10.4 °F 47% 30.21 in 10.0 mi Calm Calm - N/A   Clear
9:35 PM 24.8 °F - 10.4 °F 54% 30.21 in 10.0 mi Calm Calm - N/A   Clear
9:55 PM 26.6 °F 20.0 °F 10.4 °F 51% 30.22 in 10.0 mi WNW 5.8 mph - N/A   Clear
10:15 PM 24.8 °F - 10.4 °F 54% 30.23 in 10.0 mi Calm Calm - N/A   Clear
10:35 PM 26.6 °F 22.6 °F 10.4 °F 51% 30.23 in 10.0 mi NE 3.5 mph - N/A   Clear
10:55 PM 23.0 °F - 10.4 °F 59% 30.23 in 10.0 mi Calm Calm - N/A   Clear
11:15 PM 24.8 °F 20.5 °F 10.4 °F 54% 30.23 in 10.0 mi NE 3.5 mph - N/A   Clear
11:35 PM 21.2 °F 10.9 °F 10.4 °F 63% 30.23 in 10.0 mi North 9.2 mph - N/A   Clear
11:55 PM 23.0 °F 18.4 °F 10.4 °F 59% 30.23 in 10.0 mi North 3.5 mph - N/A   Clear